< Typhoon 202203 2022 Season Typhoon 202205 >
Typhoon 202204 (AERE)
General InformationDetailed Track InformationTrack Information on Google MapsForecast History on Google MapsAccess Analytics MapList of All Images || NewsDisaster Info.WeblogTrackbackTyphoon FrontTwiphoonTyphoon Now!Typhoon ImaginationJMA Disaster Info. XMLResourceGoogle EarthGE AnimationAtom FeedGeoJSON
Detalied Best Track Wind (Time Zone = UTC)
Year Month Day Hour Lat. Long. Wind (kt) Gust (kt) Direc. of Major Storm Axis Radius of Major Storm Axis (nm) Radius of Minor Storm Axis (nm) Direc. of Major Gale Axis Radius of Major Gale Axis (nm) Radius of Minor Gale Axis (nm) Image
2022 6 30 18 19.9 130.9 30 45 - - - - - - Image
2022 6 30 21 20.0 130.8 30 45 - - - - - - Image
2022 7 1 00 20.1 130.9 35 50 - - - E 180 120 Image
2022 7 1 03 20.5 131.3 35 50 - - - E 180 120 Image
2022 7 1 06 20.9 131.2 35 50 - - - E 180 120 Image
2022 7 1 09 21.5 131.5 35 50 - - - E 180 120 Image
2022 7 1 12 22.2 131.8 40 60 - - - E 180 120 Image
2022 7 1 15 22.9 131.5 40 60 - - - E 180 120 Image
2022 7 1 18 23.4 131.3 40 60 - - - E 180 120 Image
2022 7 1 21 24.0 130.9 40 60 - - - E 180 120 Image
2022 7 2 00 24.6 130.4 40 60 - - - SE 240 120 Image
2022 7 2 03 25.2 130.1 45 65 - - - SE 240 120 Image
2022 7 2 06 25.8 129.6 45 65 - - - E 240 120 Image
2022 7 2 09 26.4 128.8 45 65 - - - E 240 120 Image
2022 7 2 12 26.3 128.1 45 65 - - - E 240 120 Image
2022 7 2 15 26.7 127.7 40 60 - - - E 180 120 Image
2022 7 2 18 27.1 127.4 40 60 - - - E 180 120 Image
2022 7 2 21 27.6 127.2 40 60 - - - E 180 120 Image
2022 7 3 00 27.8 127.2 35 50 - - - E 120 90 Image
2022 7 3 03 27.9 127.1 35 50 - - - E 120 90 Image
2022 7 3 06 28.1 126.9 35 50 - - - E 120 90 Image
2022 7 3 09 28.5 126.7 35 50 - - - E 120 90 Image
2022 7 3 12 28.5 126.4 35 50 - - - E 120 90 Image
2022 7 3 15 28.8 126.6 35 50 - - - E 120 90 Image
2022 7 3 18 29.2 126.8 35 50 - - - E 120 90 Image
2022 7 3 21 29.6 127.0 35 50 - - - E 120 90 Image
2022 7 4 00 29.8 127.1 35 50 - - - E 120 90 Image
2022 7 4 03 30.5 127.6 35 50 - - - E 100 60 Image
2022 7 4 06 30.8 127.8 35 50 - - - E 100 60 Image
2022 7 4 09 31.2 128.2 35 50 - - - E 100 60 Image
2022 7 4 12 31.4 128.8 35 50 - - - E 100 60 Image
2022 7 4 15 31.9 129.0 35 50 - - - E 100 60 Image
2022 7 4 18 32.6 129.4 35 50 - - - E 100 60 Image
2022 7 4 21 33.1 129.9 35 50 - - - E 100 60 Image
2022 7 5 00 33.0 131.0 0 0 - - - - - - Image
Japan Meteorological Agency Best Track Data | Correction Date : 2022-07-05
< Typhoon 202203 2022 Season Typhoon 202205 >

Help